Alexandria, Minnesota
Current Conditions -  °F | °C
As of 3:53 AM on Friday 31 Oct 2014 (Local Time) from KAXN Reporting Station
Clear Clear  
Wind Chill: 17°   Ceiling: Unl
Heat Index: 27°   Visibility: 10mi
Dew Point: 19°   Wind: 10mph
Humidity: 72%   Direction: 360°N
Pressure: 30.52"   Gusts: NA
Location:  45.89°N, 95.37°W
Report Text: KAXN 310853Z AUTO 36009KT 10SM CLR M03/M07 A3052 RMK AO2 SLP354 T10281072 51014
Loading
Personal Weather Stations






























Interactive Weather Map
Tropical Storm Tracking
New forecast layout! Learn more

10-Day Weather Forecast

Advertisements
Track Severe Weather on mobile